Terminal Aerodrome Forecast
Issued by NWS

Home | Current Version | Previous Version | Text Only | Print | Product List | Glossary On
Versions: 1 2 3 4 5 6 7 8 9 10 11 12 13 14 15 16 17
000
FTAK31 PAJN 290500
TAFAKT
TAF
PAKT 290528Z 2906/3006 13006KT P6SM VCSH BKN025 OVC040
      TEMPO 2906/2909 5SM -SHRA BR BKN020 OVC030
     FM290900 14006KT 6SM BR VCSH FEW005 BKN025 BKN040
     FM291600 13008KT P6SM -SHRA SCT025 OVC050
     FM292100 13012KT 5SM -SHRA BR BKN025 OVC050
      AMD LTD TO CLD VIS AND WIND 2906/2915=

USA.gov is the U.S. government's official web portal to all federal, state and local government web resources and services.